sensor_id;sensor_type;location;lat;lon;timestamp;P1;durP1;ratioP1;P2;durP2;ratioP2
17790;SDS011;9019;48.132;-1.210;2023-11-19T00:00:05;16.77;;;3.25;;
17790;SDS011;9019;48.132;-1.210;2023-11-19T00:02:36;11.60;;;3.35;;
17790;SDS011;9019;48.132;-1.210;2023-11-19T00:05:03;12.05;;;3.13;;
17790;SDS011;9019;48.132;-1.210;2023-11-19T00:07:35;11.90;;;3.00;;
17790;SDS011;9019;48.132;-1.210;2023-11-19T00:10:02;12.52;;;3.00;;
17790;SDS011;9019;48.132;-1.210;2023-11-19T00:12:32;14.30;;;3.40;;
17790;SDS011;9019;48.132;-1.210;2023-11-19T00:14:59;14.70;;;3.67;;
17790;SDS011;9019;48.132;-1.210;2023-11-19T00:17:26;14.10;;;3.40;;
17790;SDS011;9019;48.132;-1.210;2023-11-19T00:19:53;14.45;;;4.07;;
17790;SDS011;9019;48.132;-1.210;2023-11-19T00:22:20;15.20;;;3.50;;
17790;SDS011;9019;48.132;-1.210;2023-11-19T00:24:49;13.43;;;3.45;;
17790;SDS011;9019;48.132;-1.210;2023-11-19T00:27:16;10.98;;;3.63;;
17790;SDS011;9019;48.132;-1.210;2023-11-19T00:29:44;12.88;;;3.22;;
17790;SDS011;9019;48.132;-1.210;2023-11-19T00:32:11;14.07;;;3.63;;
17790;SDS011;9019;48.132;-1.210;2023-11-19T00:34:38;11.68;;;3.10;;
17790;SDS011;9019;48.132;-1.210;2023-11-19T00:37:05;16.67;;;3.70;;
17790;SDS011;9019;48.132;-1.210;2023-11-19T00:39:33;12.27;;;2.90;;
17790;SDS011;9019;48.132;-1.210;2023-11-19T00:42:02;8.02;;;2.47;;
17790;SDS011;9019;48.132;-1.210;2023-11-19T00:44:30;11.43;;;2.67;;
17790;SDS011;9019;48.132;-1.210;2023-11-19T00:46:57;10.90;;;2.75;;
17790;SDS011;9019;48.132;-1.210;2023-11-19T00:49:25;14.45;;;3.30;;
17790;SDS011;9019;48.132;-1.210;2023-11-19T00:51:52;16.27;;;2.85;;
17790;SDS011;9019;48.132;-1.210;2023-11-19T00:54:19;10.32;;;2.65;;
17790;SDS011;9019;48.132;-1.210;2023-11-19T00:56:50;10.07;;;2.90;;
17790;SDS011;9019;48.132;-1.210;2023-11-19T00:59:19;14.80;;;2.90;;
17790;SDS011;9019;48.132;-1.210;2023-11-19T01:01:46;11.77;;;2.83;;
17790;SDS011;9019;48.132;-1.210;2023-11-19T01:04:14;11.40;;;2.55;;
17790;SDS011;9019;48.132;-1.210;2023-11-19T01:06:41;16.90;;;2.80;;
17790;SDS011;9019;48.132;-1.210;2023-11-19T01:09:08;12.63;;;2.85;;
17790;SDS011;9019;48.132;-1.210;2023-11-19T01:11:35;18.88;;;2.83;;
17790;SDS011;9019;48.132;-1.210;2023-11-19T01:14:03;12.88;;;2.85;;
17790;SDS011;9019;48.132;-1.210;2023-11-19T01:16:31;14.52;;;3.20;;
17790;SDS011;9019;48.132;-1.210;2023-11-19T01:18:59;13.80;;;2.58;;
17790;SDS011;9019;48.132;-1.210;2023-11-19T01:21:29;18.05;;;3.30;;
17790;SDS011;9019;48.132;-1.210;2023-11-19T01:23:57;15.73;;;2.70;;
17790;SDS011;9019;48.132;-1.210;2023-11-19T01:26:24;13.32;;;2.70;;
17790;SDS011;9019;48.132;-1.210;2023-11-19T01:28:51;9.18;;;2.28;;
17790;SDS011;9019;48.132;-1.210;2023-11-19T01:31:19;12.10;;;2.80;;
17790;SDS011;9019;48.132;-1.210;2023-11-19T01:33:47;17.25;;;2.80;;
17790;SDS011;9019;48.132;-1.210;2023-11-19T01:36:14;13.63;;;3.08;;
17790;SDS011;9019;48.132;-1.210;2023-11-19T01:38:42;14.80;;;2.65;;
17790;SDS011;9019;48.132;-1.210;2023-11-19T01:41:09;16.05;;;2.65;;
17790;SDS011;9019;48.132;-1.210;2023-11-19T01:43:37;17.60;;;2.60;;
17790;SDS011;9019;48.132;-1.210;2023-11-19T01:46:06;14.85;;;3.42;;
17790;SDS011;9019;48.132;-1.210;2023-11-19T01:48:36;12.88;;;2.63;;
17790;SDS011;9019;48.132;-1.210;2023-11-19T01:51:07;12.48;;;2.92;;
17790;SDS011;9019;48.132;-1.210;2023-11-19T01:53:34;12.52;;;2.97;;
17790;SDS011;9019;48.132;-1.210;2023-11-19T01:56:03;11.68;;;2.78;;
17790;SDS011;9019;48.132;-1.210;2023-11-19T01:58:31;13.50;;;2.85;;
17790;SDS011;9019;48.132;-1.210;2023-11-19T02:00:59;14.73;;;2.67;;
17790;SDS011;9019;48.132;-1.210;2023-11-19T02:03:29;15.40;;;3.20;;
17790;SDS011;9019;48.132;-1.210;2023-11-19T02:05:57;15.55;;;2.35;;
17790;SDS011;9019;48.132;-1.210;2023-11-19T02:08:26;14.90;;;2.67;;
17790;SDS011;9019;48.132;-1.210;2023-11-19T02:10:54;17.10;;;2.97;;
17790;SDS011;9019;48.132;-1.210;2023-11-19T02:13:22;17.15;;;2.30;;
17790;SDS011;9019;48.132;-1.210;2023-11-19T02:15:50;16.38;;;3.17;;
17790;SDS011;9019;48.132;-1.210;2023-11-19T02:18:17;16.40;;;3.22;;
17790;SDS011;9019;48.132;-1.210;2023-11-19T02:20:44;16.33;;;3.17;;
17790;SDS011;9019;48.132;-1.210;2023-11-19T02:23:12;14.50;;;2.87;;
17790;SDS011;9019;48.132;-1.210;2023-11-19T02:25:41;18.47;;;2.93;;
17790;SDS011;9019;48.132;-1.210;2023-11-19T02:28:11;15.73;;;3.10;;
17790;SDS011;9019;48.132;-1.210;2023-11-19T02:30:39;17.90;;;3.07;;
17790;SDS011;9019;48.132;-1.210;2023-11-19T02:33:06;21.48;;;3.17;;
17790;SDS011;9019;48.132;-1.210;2023-11-19T02:35:33;17.20;;;3.27;;
17790;SDS011;9019;48.132;-1.210;2023-11-19T02:38:01;19.63;;;3.17;;
17790;SDS011;9019;48.132;-1.210;2023-11-19T02:40:28;23.00;;;3.13;;
17790;SDS011;9019;48.132;-1.210;2023-11-19T02:42:56;18.50;;;3.30;;
17790;SDS011;9019;48.132;-1.210;2023-11-19T02:45:25;18.80;;;3.70;;
17790;SDS011;9019;48.132;-1.210;2023-11-19T02:47:52;20.07;;;3.60;;
17790;SDS011;9019;48.132;-1.210;2023-11-19T02:50:20;20.20;;;3.00;;
17790;SDS011;9019;48.132;-1.210;2023-11-19T02:52:50;20.43;;;3.30;;
17790;SDS011;9019;48.132;-1.210;2023-11-19T02:55:18;17.00;;;3.53;;
17790;SDS011;9019;48.132;-1.210;2023-11-19T02:57:45;19.30;;;3.40;;
17790;SDS011;9019;48.132;-1.210;2023-11-19T03:02:42;22.07;;;3.17;;
17790;SDS011;9019;48.132;-1.210;2023-11-19T03:05:11;19.13;;;3.27;;
17790;SDS011;9019;48.132;-1.210;2023-11-19T03:07:39;14.47;;;3.07;;
17790;SDS011;9019;48.132;-1.210;2023-11-19T03:10:07;21.17;;;3.90;;
17790;SDS011;9019;48.132;-1.210;2023-11-19T03:12:37;19.17;;;3.50;;
17790;SDS011;9019;48.132;-1.210;2023-11-19T03:15:05;19.07;;;3.93;;
17790;SDS011;9019;48.132;-1.210;2023-11-19T03:17:34;21.97;;;3.60;;
17790;SDS011;9019;48.132;-1.210;2023-11-19T03:20:03;18.50;;;3.07;;
17790;SDS011;9019;48.132;-1.210;2023-11-19T03:22:31;22.23;;;3.37;;
17790;SDS011;9019;48.132;-1.210;2023-11-19T03:24:59;25.77;;;3.50;;
17790;SDS011;9019;48.132;-1.210;2023-11-19T03:27:27;23.57;;;3.50;;
17790;SDS011;9019;48.132;-1.210;2023-11-19T03:29:55;19.17;;;3.13;;
17790;SDS011;9019;48.132;-1.210;2023-11-19T03:32:22;25.67;;;3.73;;
17790;SDS011;9019;48.132;-1.210;2023-11-19T03:34:49;25.37;;;3.83;;
17790;SDS011;9019;48.132;-1.210;2023-11-19T03:37:18;24.10;;;4.13;;
17790;SDS011;9019;48.132;-1.210;2023-11-19T03:39:45;26.30;;;4.43;;
17790;SDS011;9019;48.132;-1.210;2023-11-19T03:42:12;22.80;;;4.37;;
17790;SDS011;9019;48.132;-1.210;2023-11-19T03:44:39;22.47;;;4.13;;
17790;SDS011;9019;48.132;-1.210;2023-11-19T03:47:06;28.53;;;4.10;;
17790;SDS011;9019;48.132;-1.210;2023-11-19T03:49:34;22.40;;;4.20;;
17790;SDS011;9019;48.132;-1.210;2023-11-19T03:52:01;18.73;;;4.10;;
17790;SDS011;9019;48.132;-1.210;2023-11-19T03:54:29;29.17;;;4.83;;
17790;SDS011;9019;48.132;-1.210;2023-11-19T03:56:57;28.83;;;4.50;;
17790;SDS011;9019;48.132;-1.210;2023-11-19T03:59:25;25.73;;;3.90;;
17790;SDS011;9019;48.132;-1.210;2023-11-19T04:01:52;27.60;;;4.40;;
17790;SDS011;9019;48.132;-1.210;2023-11-19T04:04:21;30.17;;;4.53;;
17790;SDS011;9019;48.132;-1.210;2023-11-19T04:06:48;28.67;;;4.03;;
17790;SDS011;9019;48.132;-1.210;2023-11-19T04:09:15;28.93;;;4.10;;
17790;SDS011;9019;48.132;-1.210;2023-11-19T04:11:44;25.93;;;4.13;;
17790;SDS011;9019;48.132;-1.210;2023-11-19T04:14:12;20.83;;;4.23;;
17790;SDS011;9019;48.132;-1.210;2023-11-19T04:16:39;25.10;;;4.00;;
17790;SDS011;9019;48.132;-1.210;2023-11-19T04:19:07;24.07;;;4.07;;
17790;SDS011;9019;48.132;-1.210;2023-11-19T04:21:34;24.27;;;4.37;;
17790;SDS011;9019;48.132;-1.210;2023-11-19T04:24:01;29.17;;;4.13;;
17790;SDS011;9019;48.132;-1.210;2023-11-19T04:26:29;32.53;;;5.53;;
17790;SDS011;9019;48.132;-1.210;2023-11-19T04:28:57;31.37;;;4.37;;
17790;SDS011;9019;48.132;-1.210;2023-11-19T04:31:28;21.60;;;4.50;;
17790;SDS011;9019;48.132;-1.210;2023-11-19T04:33:56;25.20;;;4.23;;
17790;SDS011;9019;48.132;-1.210;2023-11-19T04:36:25;30.07;;;5.00;;
17790;SDS011;9019;48.132;-1.210;2023-11-19T04:38:52;25.90;;;4.27;;
17790;SDS011;9019;48.132;-1.210;2023-11-19T04:41:19;28.90;;;4.27;;
17790;SDS011;9019;48.132;-1.210;2023-11-19T04:43:47;31.90;;;4.90;;
17790;SDS011;9019;48.132;-1.210;2023-11-19T04:46:15;27.17;;;4.60;;
17790;SDS011;9019;48.132;-1.210;2023-11-19T04:48:44;30.73;;;4.93;;
17790;SDS011;9019;48.132;-1.210;2023-11-19T04:51:11;25.50;;;4.67;;
17790;SDS011;9019;48.132;-1.210;2023-11-19T04:53:38;26.57;;;4.00;;
17790;SDS011;9019;48.132;-1.210;2023-11-19T04:56:08;33.13;;;4.40;;
17790;SDS011;9019;48.132;-1.210;2023-11-19T04:58:36;31.53;;;5.30;;
17790;SDS011;9019;48.132;-1.210;2023-11-19T05:01:03;27.40;;;4.70;;
17790;SDS011;9019;48.132;-1.210;2023-11-19T05:03:32;26.73;;;4.87;;
17790;SDS011;9019;48.132;-1.210;2023-11-19T05:06:01;28.97;;;5.07;;
17790;SDS011;9019;48.132;-1.210;2023-11-19T05:08:28;28.63;;;4.13;;
17790;SDS011;9019;48.132;-1.210;2023-11-19T05:10:55;30.23;;;4.73;;
17790;SDS011;9019;48.132;-1.210;2023-11-19T05:13:24;31.23;;;4.93;;
17790;SDS011;9019;48.132;-1.210;2023-11-19T05:15:51;31.10;;;5.07;;
17790;SDS011;9019;48.132;-1.210;2023-11-19T05:18:18;30.87;;;5.27;;
17790;SDS011;9019;48.132;-1.210;2023-11-19T05:20:47;34.67;;;5.27;;
17790;SDS011;9019;48.132;-1.210;2023-11-19T05:23:14;34.20;;;5.33;;
17790;SDS011;9019;48.132;-1.210;2023-11-19T05:25:42;30.87;;;4.53;;
17790;SDS011;9019;48.132;-1.210;2023-11-19T05:28:10;36.30;;;4.80;;
17790;SDS011;9019;48.132;-1.210;2023-11-19T05:30:39;35.93;;;5.57;;
17790;SDS011;9019;48.132;-1.210;2023-11-19T05:33:06;30.57;;;4.73;;
17790;SDS011;9019;48.132;-1.210;2023-11-19T05:35:34;29.97;;;5.30;;
17790;SDS011;9019;48.132;-1.210;2023-11-19T05:38:03;32.13;;;4.67;;
17790;SDS011;9019;48.132;-1.210;2023-11-19T05:40:31;36.27;;;4.93;;
17790;SDS011;9019;48.132;-1.210;2023-11-19T05:42:58;40.60;;;5.53;;
17790;SDS011;9019;48.132;-1.210;2023-11-19T05:45:25;39.33;;;5.93;;
17790;SDS011;9019;48.132;-1.210;2023-11-19T05:47:52;41.33;;;5.17;;
17790;SDS011;9019;48.132;-1.210;2023-11-19T05:50:19;41.00;;;4.97;;
17790;SDS011;9019;48.132;-1.210;2023-11-19T05:52:47;41.10;;;4.63;;
17790;SDS011;9019;48.132;-1.210;2023-11-19T05:55:15;35.53;;;4.93;;
17790;SDS011;9019;48.132;-1.210;2023-11-19T05:57:43;36.10;;;5.03;;
17790;SDS011;9019;48.132;-1.210;2023-11-19T06:00:10;31.23;;;4.60;;
17790;SDS011;9019;48.132;-1.210;2023-11-19T06:02:40;32.77;;;5.37;;
17790;SDS011;9019;48.132;-1.210;2023-11-19T06:05:07;24.07;;;4.33;;
17790;SDS011;9019;48.132;-1.210;2023-11-19T06:07:35;39.40;;;5.97;;
17790;SDS011;9019;48.132;-1.210;2023-11-19T06:10:04;36.57;;;6.00;;
17790;SDS011;9019;48.132;-1.210;2023-11-19T06:12:33;35.77;;;5.43;;
17790;SDS011;9019;48.132;-1.210;2023-11-19T06:15:03;40.70;;;6.17;;
17790;SDS011;9019;48.132;-1.210;2023-11-19T06:17:31;37.07;;;6.13;;
17790;SDS011;9019;48.132;-1.210;2023-11-19T06:19:58;41.80;;;6.90;;
17790;SDS011;9019;48.132;-1.210;2023-11-19T06:22:25;40.70;;;6.73;;
17790;SDS011;9019;48.132;-1.210;2023-11-19T06:24:52;37.43;;;6.20;;
17790;SDS011;9019;48.132;-1.210;2023-11-19T06:27:20;40.00;;;5.67;;
17790;SDS011;9019;48.132;-1.210;2023-11-19T06:29:50;39.10;;;5.80;;
17790;SDS011;9019;48.132;-1.210;2023-11-19T06:32:17;33.43;;;5.37;;
17790;SDS011;9019;48.132;-1.210;2023-11-19T06:34:44;41.97;;;5.67;;
17790;SDS011;9019;48.132;-1.210;2023-11-19T06:37:12;32.33;;;4.97;;
17790;SDS011;9019;48.132;-1.210;2023-11-19T06:39:39;36.93;;;5.93;;
17790;SDS011;9019;48.132;-1.210;2023-11-19T06:42:06;30.50;;;5.17;;
17790;SDS011;9019;48.132;-1.210;2023-11-19T06:44:33;42.00;;;6.50;;
17790;SDS011;9019;48.132;-1.210;2023-11-19T06:47:02;36.47;;;5.67;;
17790;SDS011;9019;48.132;-1.210;2023-11-19T06:49:29;31.90;;;5.10;;
17790;SDS011;9019;48.132;-1.210;2023-11-19T06:51:57;32.40;;;5.20;;
17790;SDS011;9019;48.132;-1.210;2023-11-19T06:54:24;42.33;;;6.47;;
17790;SDS011;9019;48.132;-1.210;2023-11-19T06:56:51;31.80;;;5.57;;
17790;SDS011;9019;48.132;-1.210;2023-11-19T06:59:18;40.03;;;5.90;;
17790;SDS011;9019;48.132;-1.210;2023-11-19T07:01:46;32.87;;;4.87;;
17790;SDS011;9019;48.132;-1.210;2023-11-19T07:04:15;37.50;;;6.47;;
17790;SDS011;9019;48.132;-1.210;2023-11-19T07:06:42;33.70;;;5.40;;
17790;SDS011;9019;48.132;-1.210;2023-11-19T07:09:09;41.13;;;6.93;;
17790;SDS011;9019;48.132;-1.210;2023-11-19T07:11:37;35.17;;;5.97;;
17790;SDS011;9019;48.132;-1.210;2023-11-19T07:14:04;33.23;;;5.90;;
17790;SDS011;9019;48.132;-1.210;2023-11-19T07:16:32;38.20;;;4.97;;
17790;SDS011;9019;48.132;-1.210;2023-11-19T07:18:59;36.60;;;4.87;;
17790;SDS011;9019;48.132;-1.210;2023-11-19T07:21:28;33.27;;;5.73;;
17790;SDS011;9019;48.132;-1.210;2023-11-19T07:23:55;34.83;;;5.03;;
17790;SDS011;9019;48.132;-1.210;2023-11-19T07:26:22;38.73;;;5.53;;
17790;SDS011;9019;48.132;-1.210;2023-11-19T07:28:49;32.37;;;5.23;;
17790;SDS011;9019;48.132;-1.210;2023-11-19T07:31:17;34.00;;;5.57;;
17790;SDS011;9019;48.132;-1.210;2023-11-19T07:33:45;36.63;;;5.10;;
17790;SDS011;9019;48.132;-1.210;2023-11-19T07:36:13;32.40;;;5.33;;
17790;SDS011;9019;48.132;-1.210;2023-11-19T07:38:41;32.07;;;6.00;;
17790;SDS011;9019;48.132;-1.210;2023-11-19T07:41:08;38.60;;;5.57;;
17790;SDS011;9019;48.132;-1.210;2023-11-19T07:43:38;38.83;;;6.53;;
17790;SDS011;9019;48.132;-1.210;2023-11-19T07:46:10;32.17;;;5.97;;
17790;SDS011;9019;48.132;-1.210;2023-11-19T07:48:38;36.77;;;6.20;;
17790;SDS011;9019;48.132;-1.210;2023-11-19T07:51:07;36.13;;;5.57;;
17790;SDS011;9019;48.132;-1.210;2023-11-19T07:53:34;32.33;;;7.17;;
17790;SDS011;9019;48.132;-1.210;2023-11-19T07:56:05;35.20;;;5.57;;
17790;SDS011;9019;48.132;-1.210;2023-11-19T07:58:32;32.90;;;4.73;;
17790;SDS011;9019;48.132;-1.210;2023-11-19T08:00:59;30.47;;;5.77;;
17790;SDS011;9019;48.132;-1.210;2023-11-19T08:03:27;33.07;;;5.33;;
17790;SDS011;9019;48.132;-1.210;2023-11-19T08:05:55;33.83;;;5.20;;
17790;SDS011;9019;48.132;-1.210;2023-11-19T08:08:23;35.40;;;5.30;;
17790;SDS011;9019;48.132;-1.210;2023-11-19T08:10:50;30.67;;;5.30;;
17790;SDS011;9019;48.132;-1.210;2023-11-19T08:13:19;31.77;;;5.27;;
17790;SDS011;9019;48.132;-1.210;2023-11-19T08:15:47;32.13;;;5.37;;
17790;SDS011;9019;48.132;-1.210;2023-11-19T08:18:14;30.93;;;5.17;;
17790;SDS011;9019;48.132;-1.210;2023-11-19T08:20:41;34.07;;;5.07;;
17790;SDS011;9019;48.132;-1.210;2023-11-19T08:23:09;28.43;;;4.83;;
17790;SDS011;9019;48.132;-1.210;2023-11-19T08:25:37;26.93;;;5.30;;
17790;SDS011;9019;48.132;-1.210;2023-11-19T08:28:04;37.03;;;6.27;;
17790;SDS011;9019;48.132;-1.210;2023-11-19T08:30:33;35.67;;;6.47;;
17790;SDS011;9019;48.132;-1.210;2023-11-19T08:33:00;29.00;;;6.07;;
17790;SDS011;9019;48.132;-1.210;2023-11-19T08:35:28;31.58;;;5.10;;
17790;SDS011;9019;48.132;-1.210;2023-11-19T08:37:56;17.58;;;4.65;;
17790;SDS011;9019;48.132;-1.210;2023-11-19T08:40:24;29.80;;;5.60;;
17790;SDS011;9019;48.132;-1.210;2023-11-19T08:42:51;34.88;;;5.53;;
17790;SDS011;9019;48.132;-1.210;2023-11-19T08:45:18;26.55;;;6.53;;
17790;SDS011;9019;48.132;-1.210;2023-11-19T08:47:47;28.60;;;6.20;;
17790;SDS011;9019;48.132;-1.210;2023-11-19T08:50:14;34.05;;;6.75;;
17790;SDS011;9019;48.132;-1.210;2023-11-19T08:52:41;34.70;;;7.07;;
17790;SDS011;9019;48.132;-1.210;2023-11-19T08:55:08;34.25;;;6.90;;
17790;SDS011;9019;48.132;-1.210;2023-11-19T08:57:36;28.00;;;6.43;;
17790;SDS011;9019;48.132;-1.210;2023-11-19T09:00:04;25.05;;;6.75;;
17790;SDS011;9019;48.132;-1.210;2023-11-19T09:02:33;27.23;;;5.25;;
17790;SDS011;9019;48.132;-1.210;2023-11-19T09:05:02;22.80;;;4.65;;
17790;SDS011;9019;48.132;-1.210;2023-11-19T09:07:29;24.15;;;5.00;;
17790;SDS011;9019;48.132;-1.210;2023-11-19T09:09:56;21.75;;;4.22;;
17790;SDS011;9019;48.132;-1.210;2023-11-19T09:12:23;18.85;;;4.03;;
17790;SDS011;9019;48.132;-1.210;2023-11-19T09:14:50;24.77;;;4.72;;
17790;SDS011;9019;48.132;-1.210;2023-11-19T09:17:17;22.60;;;4.72;;
17790;SDS011;9019;48.132;-1.210;2023-11-19T09:19:45;21.38;;;4.35;;
17790;SDS011;9019;48.132;-1.210;2023-11-19T09:22:13;26.63;;;4.65;;
17790;SDS011;9019;48.132;-1.210;2023-11-19T09:24:41;23.15;;;4.35;;
17790;SDS011;9019;48.132;-1.210;2023-11-19T09:27:09;23.15;;;5.07;;
17790;SDS011;9019;48.132;-1.210;2023-11-19T09:29:36;23.02;;;4.55;;
17790;SDS011;9019;48.132;-1.210;2023-11-19T09:32:04;21.27;;;4.35;;
17790;SDS011;9019;48.132;-1.210;2023-11-19T09:34:31;23.25;;;4.65;;
17790;SDS011;9019;48.132;-1.210;2023-11-19T09:36:58;21.33;;;4.40;;
17790;SDS011;9019;48.132;-1.210;2023-11-19T09:39:27;24.17;;;4.30;;
17790;SDS011;9019;48.132;-1.210;2023-11-19T09:41:54;24.33;;;4.50;;
17790;SDS011;9019;48.132;-1.210;2023-11-19T09:44:22;25.02;;;4.93;;
17790;SDS011;9019;48.132;-1.210;2023-11-19T09:46:50;22.27;;;5.20;;
17790;SDS011;9019;48.132;-1.210;2023-11-19T09:49:19;24.75;;;5.00;;
17790;SDS011;9019;48.132;-1.210;2023-11-19T09:51:49;23.67;;;4.75;;
17790;SDS011;9019;48.132;-1.210;2023-11-19T09:54:16;24.45;;;4.40;;
17790;SDS011;9019;48.132;-1.210;2023-11-19T09:56:44;28.63;;;5.47;;
17790;SDS011;9019;48.132;-1.210;2023-11-19T09:59:12;20.33;;;4.55;;
17790;SDS011;9019;48.132;-1.210;2023-11-19T10:01:40;27.63;;;5.13;;
17790;SDS011;9019;48.132;-1.210;2023-11-19T10:04:07;24.38;;;5.53;;
17790;SDS011;9019;48.132;-1.210;2023-11-19T10:06:34;22.30;;;4.43;;
17790;SDS011;9019;48.132;-1.210;2023-11-19T10:09:02;27.92;;;5.10;;
17790;SDS011;9019;48.132;-1.210;2023-11-19T10:11:30;20.38;;;4.40;;
17790;SDS011;9019;48.132;-1.210;2023-11-19T10:13:59;25.92;;;5.30;;
17790;SDS011;9019;48.132;-1.210;2023-11-19T10:16:29;19.02;;;3.78;;
17790;SDS011;9019;48.132;-1.210;2023-11-19T10:18:57;23.38;;;4.72;;
17790;SDS011;9019;48.132;-1.210;2023-11-19T10:21:24;21.73;;;3.88;;
17790;SDS011;9019;48.132;-1.210;2023-11-19T10:23:54;24.95;;;4.95;;
17790;SDS011;9019;48.132;-1.210;2023-11-19T10:26:22;24.88;;;4.68;;
17790;SDS011;9019;48.132;-1.210;2023-11-19T10:28:49;24.38;;;4.70;;
17790;SDS011;9019;48.132;-1.210;2023-11-19T10:31:19;22.67;;;4.30;;
17790;SDS011;9019;48.132;-1.210;2023-11-19T10:33:50;17.48;;;4.00;;
17790;SDS011;9019;48.132;-1.210;2023-11-19T10:36:17;22.50;;;4.68;;
17790;SDS011;9019;48.132;-1.210;2023-11-19T10:38:51;25.17;;;4.97;;
17790;SDS011;9019;48.132;-1.210;2023-11-19T10:41:28;25.67;;;5.03;;
17790;SDS011;9019;48.132;-1.210;2023-11-19T10:43:56;24.75;;;5.13;;
17790;SDS011;9019;48.132;-1.210;2023-11-19T10:46:35;26.23;;;4.85;;
17790;SDS011;9019;48.132;-1.210;2023-11-19T10:49:03;23.55;;;4.55;;
17790;SDS011;9019;48.132;-1.210;2023-11-19T10:51:31;20.70;;;4.93;;
17790;SDS011;9019;48.132;-1.210;2023-11-19T10:54:01;23.40;;;4.45;;
17790;SDS011;9019;48.132;-1.210;2023-11-19T10:56:31;20.95;;;4.07;;
17790;SDS011;9019;48.132;-1.210;2023-11-19T10:58:58;20.33;;;4.63;;
17790;SDS011;9019;48.132;-1.210;2023-11-19T11:01:28;20.73;;;3.97;;
17790;SDS011;9019;48.132;-1.210;2023-11-19T11:03:59;20.23;;;4.22;;
17790;SDS011;9019;48.132;-1.210;2023-11-19T11:06:27;22.80;;;4.90;;
17790;SDS011;9019;48.132;-1.210;2023-11-19T11:08:54;24.20;;;4.88;;
17790;SDS011;9019;48.132;-1.210;2023-11-19T11:11:22;22.75;;;4.55;;
17790;SDS011;9019;48.132;-1.210;2023-11-19T11:13:49;22.52;;;4.60;;
17790;SDS011;9019;48.132;-1.210;2023-11-19T11:16:17;25.13;;;5.22;;
17790;SDS011;9019;48.132;-1.210;2023-11-19T11:18:46;25.33;;;4.47;;
17790;SDS011;9019;48.132;-1.210;2023-11-19T11:21:15;18.73;;;4.63;;
17790;SDS011;9019;48.132;-1.210;2023-11-19T11:23:51;20.02;;;4.25;;
17790;SDS011;9019;48.132;-1.210;2023-11-19T11:26:31;24.35;;;4.50;;
17790;SDS011;9019;48.132;-1.210;2023-11-19T11:29:02;22.67;;;4.15;;
17790;SDS011;9019;48.132;-1.210;2023-11-19T11:31:34;22.30;;;4.07;;
17790;SDS011;9019;48.132;-1.210;2023-11-19T11:34:22;23.25;;;4.50;;
17790;SDS011;9019;48.132;-1.210;2023-11-19T11:36:54;23.95;;;4.60;;
17790;SDS011;9019;48.132;-1.210;2023-11-19T11:39:24;22.27;;;4.40;;
17790;SDS011;9019;48.132;-1.210;2023-11-19T11:47:23;21.13;;;4.00;;
17790;SDS011;9019;48.132;-1.210;2023-11-19T11:49:52;22.02;;;4.63;;
17790;SDS011;9019;48.132;-1.210;2023-11-19T11:52:20;28.33;;;4.68;;
17790;SDS011;9019;48.132;-1.210;2023-11-19T11:54:48;20.17;;;4.88;;
17790;SDS011;9019;48.132;-1.210;2023-11-19T11:57:16;19.35;;;4.25;;
17790;SDS011;9019;48.132;-1.210;2023-11-19T11:59:46;24.55;;;5.07;;
17790;SDS011;9019;48.132;-1.210;2023-11-19T12:02:14;23.25;;;4.70;;
17790;SDS011;9019;48.132;-1.210;2023-11-19T12:04:42;17.70;;;3.95;;
17790;SDS011;9019;48.132;-1.210;2023-11-19T12:07:13;20.05;;;3.97;;
17790;SDS011;9019;48.132;-1.210;2023-11-19T12:09:40;16.63;;;4.03;;
17790;SDS011;9019;48.132;-1.210;2023-11-19T12:12:21;28.00;;;4.70;;
17790;SDS011;9019;48.132;-1.210;2023-11-19T12:15:01;19.00;;;3.72;;
17790;SDS011;9019;48.132;-1.210;2023-11-19T12:17:36;22.58;;;4.88;;
17790;SDS011;9019;48.132;-1.210;2023-11-19T12:20:05;17.48;;;3.67;;
17790;SDS011;9019;48.132;-1.210;2023-11-19T12:22:35;21.35;;;4.25;;
17790;SDS011;9019;48.132;-1.210;2023-11-19T12:25:04;22.55;;;4.20;;
17790;SDS011;9019;48.132;-1.210;2023-11-19T12:27:32;18.63;;;3.67;;
17790;SDS011;9019;48.132;-1.210;2023-11-19T12:30:00;18.48;;;3.63;;
17790;SDS011;9019;48.132;-1.210;2023-11-19T12:32:36;28.80;;;3.85;;
17790;SDS011;9019;48.132;-1.210;2023-11-19T12:35:04;23.33;;;3.95;;
17790;SDS011;9019;48.132;-1.210;2023-11-19T12:37:31;18.10;;;3.92;;
17790;SDS011;9019;48.132;-1.210;2023-11-19T12:40:02;19.00;;;3.28;;
17790;SDS011;9019;48.132;-1.210;2023-11-19T12:42:36;21.42;;;3.72;;
17790;SDS011;9019;48.132;-1.210;2023-11-19T12:45:04;18.38;;;4.03;;
17790;SDS011;9019;48.132;-1.210;2023-11-19T12:47:33;22.70;;;4.55;;
17790;SDS011;9019;48.132;-1.210;2023-11-19T12:50:00;17.85;;;3.58;;
17790;SDS011;9019;48.132;-1.210;2023-11-19T12:52:27;16.02;;;2.83;;
17790;SDS011;9019;48.132;-1.210;2023-11-19T12:54:54;20.52;;;4.10;;
17790;SDS011;9019;48.132;-1.210;2023-11-19T12:57:36;13.80;;;3.55;;
17790;SDS011;9019;48.132;-1.210;2023-11-19T13:00:04;17.55;;;3.53;;
17790;SDS011;9019;48.132;-1.210;2023-11-19T13:02:46;20.83;;;3.35;;
17790;SDS011;9019;48.132;-1.210;2023-11-19T13:05:21;23.13;;;3.38;;
17790;SDS011;9019;48.132;-1.210;2023-11-19T13:07:48;17.25;;;3.50;;
17790;SDS011;9019;48.132;-1.210;2023-11-19T13:10:16;18.50;;;3.85;;
17790;SDS011;9019;48.132;-1.210;2023-11-19T13:12:45;21.17;;;3.72;;
17790;SDS011;9019;48.132;-1.210;2023-11-19T13:15:26;18.73;;;3.58;;
17790;SDS011;9019;48.132;-1.210;2023-11-19T13:17:53;17.05;;;3.50;;
17790;SDS011;9019;48.132;-1.210;2023-11-19T13:20:20;16.73;;;3.25;;
17790;SDS011;9019;48.132;-1.210;2023-11-19T13:22:55;18.35;;;3.80;;
17790;SDS011;9019;48.132;-1.210;2023-11-19T13:25:22;18.15;;;3.72;;
17790;SDS011;9019;48.132;-1.210;2023-11-19T13:27:51;19.20;;;4.30;;
17790;SDS011;9019;48.132;-1.210;2023-11-19T13:30:18;18.83;;;3.85;;
17790;SDS011;9019;48.132;-1.210;2023-11-19T13:32:45;13.68;;;3.35;;
17790;SDS011;9019;48.132;-1.210;2023-11-19T13:35:13;21.95;;;3.78;;
17790;SDS011;9019;48.132;-1.210;2023-11-19T13:37:40;22.48;;;3.75;;
17790;SDS011;9019;48.132;-1.210;2023-11-19T13:40:07;15.40;;;3.17;;
17790;SDS011;9019;48.132;-1.210;2023-11-19T13:42:38;20.00;;;4.30;;
17790;SDS011;9019;48.132;-1.210;2023-11-19T13:45:08;14.75;;;3.25;;
17790;SDS011;9019;48.132;-1.210;2023-11-19T13:47:37;17.17;;;3.63;;
17790;SDS011;9019;48.132;-1.210;2023-11-19T13:50:06;17.60;;;3.47;;
17790;SDS011;9019;48.132;-1.210;2023-11-19T13:52:34;18.40;;;3.50;;
17790;SDS011;9019;48.132;-1.210;2023-11-19T13:55:03;18.00;;;3.92;;
17790;SDS011;9019;48.132;-1.210;2023-11-19T13:57:32;16.88;;;3.28;;
17790;SDS011;9019;48.132;-1.210;2023-11-19T13:59:59;20.15;;;3.20;;
17790;SDS011;9019;48.132;-1.210;2023-11-19T14:02:31;20.08;;;3.80;;
17790;SDS011;9019;48.132;-1.210;2023-11-19T14:04:58;19.35;;;3.70;;
17790;SDS011;9019;48.132;-1.210;2023-11-19T14:07:26;20.70;;;3.70;;
17790;SDS011;9019;48.132;-1.210;2023-11-19T14:09:53;21.70;;;3.13;;
17790;SDS011;9019;48.132;-1.210;2023-11-19T14:12:21;16.00;;;3.33;;
17790;SDS011;9019;48.132;-1.210;2023-11-19T14:14:48;12.85;;;2.83;;
17790;SDS011;9019;48.132;-1.210;2023-11-19T14:17:15;20.65;;;3.38;;
17790;SDS011;9019;48.132;-1.210;2023-11-19T14:19:45;13.90;;;3.63;;
17790;SDS011;9019;48.132;-1.210;2023-11-19T14:22:12;19.88;;;3.78;;
17790;SDS011;9019;48.132;-1.210;2023-11-19T14:24:39;17.58;;;3.83;;
17790;SDS011;9019;48.132;-1.210;2023-11-19T14:27:07;21.70;;;3.58;;
17790;SDS011;9019;48.132;-1.210;2023-11-19T14:29:35;18.80;;;3.50;;
17790;SDS011;9019;48.132;-1.210;2023-11-19T14:32:02;16.63;;;3.28;;
17790;SDS011;9019;48.132;-1.210;2023-11-19T14:34:30;16.70;;;3.00;;
17790;SDS011;9019;48.132;-1.210;2023-11-19T14:36:58;19.35;;;3.42;;
17790;SDS011;9019;48.132;-1.210;2023-11-19T14:39:26;17.95;;;3.20;;
17790;SDS011;9019;48.132;-1.210;2023-11-19T14:41:56;21.90;;;3.63;;
17790;SDS011;9019;48.132;-1.210;2023-11-19T14:44:26;18.65;;;3.65;;
17790;SDS011;9019;48.132;-1.210;2023-11-19T14:46:54;17.65;;;3.80;;
17790;SDS011;9019;48.132;-1.210;2023-11-19T14:49:22;18.60;;;3.75;;